Time;durP1;ratioP1;P1;durP2;ratioP2;P2;SDS_P1;SDS_P2;PMS_P1;PMS_P2;Temp;Humidity;BMP_temperature;BMP_pressure;BME280_temperature;BME280_humidity;BME280_pressure;Samples;Min_cycle;Max_cycle;Signal;HPM_P1;HPM_P2
2022/09/20 00:00:34;;;;;;;;;1.67;1.67;;;;;16.74;45.42;101835.19;2096316;28;47308;-64
2022/09/20 00:01:34;;;;;;;;;2.67;2.67;;;;;16.74;45.19;101845.91;2093919;28;47509;-62
2022/09/20 00:02:35;;;;;;;;;2.33;2.33;;;;;16.73;45.42;101841.47;2087942;28;47790;-62
2022/09/20 00:03:37;;;;;;;;;3.00;3.00;;;;;16.73;45.68;101843.28;2093165;28;47642;-63
2022/09/20 00:04:37;;;;;;;;;2.75;2.00;;;;;16.73;45.57;101837.91;2096457;28;47795;-63
2022/09/20 00:05:41;;;;;;;;;1.33;1.33;;;;;16.73;45.57;101840.59;2097936;28;47107;-63
2022/09/20 00:06:41;;;;;;;;;3.00;2.75;;;;;16.72;45.47;101844.19;2095677;27;47680;-63
2022/09/20 00:07:45;;;;;;;;;2.00;2.00;;;;;16.71;45.76;101842.44;2087598;28;47196;-63
2022/09/20 00:08:46;;;;;;;;;2.50;1.50;;;;;16.71;46.14;101839.75;2087899;28;46107;-63
2022/09/20 00:09:46;;;;;;;;;2.00;2.00;;;;;16.71;46.16;101839.75;2087822;28;47449;-63
2022/09/20 00:10:46;;;;;;;;;2.33;2.00;;;;;16.70;45.64;101844.25;2088140;28;46813;-62
2022/09/20 00:11:47;;;;;;;;;2.00;2.00;;;;;16.71;45.84;101847.81;2087892;28;47405;-63
2022/09/20 00:12:47;;;;;;;;;2.33;2.33;;;;;16.69;45.73;101837.13;2096743;28;47788;-63
2022/09/20 00:13:50;;;;;;;;;1.00;1.00;;;;;16.68;45.74;101842.53;2103419;28;47659;-65
2022/09/20 00:14:50;;;;;;;;;1.75;0.75;;;;;16.67;45.89;101844.34;2096156;28;47722;-63
2022/09/20 00:15:51;;;;;;;;;2.67;2.00;;;;;16.66;45.90;101836.31;2096153;28;46922;-63
2022/09/20 00:16:51;;;;;;;;;2.67;2.33;;;;;16.66;45.59;101847.03;2096110;28;47214;-63
2022/09/20 00:17:51;;;;;;;;;2.00;2.00;;;;;16.67;45.96;101840.75;2096124;28;47823;-63
2022/09/20 00:18:54;;;;;;;;;2.67;2.67;;;;;16.66;45.94;101845.22;2096058;28;47534;-62
2022/09/20 00:19:55;;;;;;;;;2.25;2.25;;;;;16.66;46.06;101839.00;2096005;28;47548;-62
2022/09/20 00:20:55;;;;;;;;;4.33;3.00;;;;;16.65;46.06;101843.47;2096080;28;47448;-63
2022/09/20 00:21:55;;;;;;;;;5.00;4.33;;;;;16.63;45.69;101839.94;2096006;28;47193;-62
2022/09/20 00:22:56;;;;;;;;;2.33;2.33;;;;;16.62;45.75;101840.88;2096718;28;47453;-62
2022/09/20 00:23:57;;;;;;;;;5.00;4.00;;;;;16.61;45.71;101839.09;2095897;28;47148;-62
2022/09/20 00:24:57;;;;;;;;;4.00;4.00;;;;;16.60;46.14;101831.13;2096020;28;47015;-63
2022/09/20 00:26:00;;;;;;;;;2.50;2.50;;;;;16.60;46.16;101839.16;2095980;28;47502;-63
2022/09/20 00:27:00;;;;;;;;;2.75;2.75;;;;;16.59;46.13;101838.28;2099277;28;47588;-63
2022/09/20 00:28:01;;;;;;;;;1.67;1.67;;;;;16.60;46.41;101831.13;2101054;28;47068;-64
2022/09/20 00:29:02;;;;;;;;;2.00;2.00;;;;;16.61;46.25;101835.56;2095632;28;47367;-64
2022/09/20 00:30:02;;;;;;;;;3.00;3.00;;;;;16.61;45.99;101839.09;2097142;28;47372;-63
2022/09/20 00:31:03;;;;;;;;;3.33;3.00;;;;;16.61;45.96;101833.75;2095605;28;47170;-63
2022/09/20 00:32:04;;;;;;;;;5.00;3.25;;;;;16.61;46.21;101838.22;2095581;28;47470;-63
2022/09/20 00:33:04;;;;;;;;;2.00;2.00;;;;;16.61;46.27;101838.22;2096179;28;47139;-62
2022/09/20 00:35:23;;;;;;;;;3.50;3.50;;;;;16.59;46.19;101835.59;2095020;28;47487;-63
2022/09/20 00:36:26;;;;;;;;;3.00;3.00;;;;;16.60;46.02;101832.00;2089948;28;47655;-63
2022/09/20 00:37:26;;;;;;;;;3.00;2.00;;;;;16.58;46.01;101833.84;2088365;28;47544;-62
2022/09/20 00:38:26;;;;;;;;;2.67;2.00;;;;;16.60;46.07;101839.16;2095585;28;47780;-63
2022/09/20 00:39:27;;;;;;;;;2.00;2.00;;;;;16.59;46.56;101830.25;2091911;28;47193;-62
2022/09/20 00:40:27;;;;;;;;;2.00;2.00;;;;;16.60;46.08;101836.47;2086604;28;47477;-62
2022/09/20 00:41:30;;;;;;;;;2.00;2.00;;;;;16.57;46.03;101840.13;2086570;28;47071;-64
2022/09/20 00:42:31;;;;;;;;;2.60;2.60;;;;;16.57;46.35;101833.88;2095957;28;48229;-64
2022/09/20 00:43:44;;;;;;;;;2.00;2.00;;;;;16.56;46.29;101830.34;2095918;28;47156;-62
2022/09/20 00:45:00;;;;;;;;;3.00;3.00;;;;;16.56;45.95;101832.13;2089017;28;47968;-64
2022/09/20 00:46:02;;;;;;;;;3.80;3.80;;;;;16.55;45.94;101833.06;2103916;28;47591;-63
2022/09/20 00:47:06;;;;;;;;;5.20;2.60;;;;;16.55;46.08;101827.69;2103154;28;47449;-62
2022/09/20 00:48:39;;;;;;;;;2.00;2.00;;;;;16.54;45.90;101829.50;2104333;28;48120;-62
2022/09/20 00:49:40;;;;;;;;;4.00;3.75;;;;;16.54;45.96;101825.94;2061702;28;47704;-63
2022/09/20 00:50:48;;;;;;;;;3.67;3.67;;;;;16.54;45.89;101828.63;2059578;28;47759;-62
2022/09/20 00:51:53;;;;;;;;;2.80;2.80;;;;;16.53;46.15;101824.19;2046098;28;47813;-63
2022/09/20 00:53:04;;;;;;;;;3.40;3.00;;;;;16.53;46.42;101824.19;2061444;28;47622;-62
2022/09/20 00:54:08;;;;;;;;;3.80;3.80;;;;;16.53;46.06;101824.19;2066182;28;47497;-63
2022/09/20 00:55:10;;;;;;;;;3.40;3.40;;;;;16.52;46.52;101831.34;2061963;28;48034;-63
2022/09/20 00:56:19;;;;;;;;;4.80;3.00;;;;;16.54;46.42;101825.94;2054136;28;47240;-62
2022/09/20 00:57:19;;;;;;;;;2.00;2.00;;;;;16.54;46.50;101823.28;2055370;28;47971;-65
2022/09/20 00:58:23;;;;;;;;;2.00;2.00;;;;;16.54;46.22;101820.59;2062709;28;45679;-63
2022/09/20 00:59:29;;;;;;;;;3.80;2.80;;;;;16.58;46.50;101827.59;2053839;28;47210;-63
2022/09/20 01:00:30;;;;;;;;;4.00;3.60;;;;;16.56;46.38;101824.09;2046474;28;47061;-64
2022/09/20 01:01:31;;;;;;;;;2.25;2.25;;;;;16.57;46.03;101834.78;2053990;28;47750;-63
2022/09/20 01:02:34;;;;;;;;;3.00;3.00;;;;;16.55;46.37;101828.59;2062818;28;47312;-63
2022/09/20 01:03:38;;;;;;;;;3.00;3.00;;;;;16.57;46.43;101831.22;2062026;28;48053;-64
2022/09/20 01:04:41;;;;;;;;;4.00;3.20;;;;;16.55;46.06;101833.06;2062203;28;47475;-62
2022/09/20 01:05:44;;;;;;;;;3.80;3.40;;;;;16.55;46.18;101839.31;2061834;28;47615;-63
2022/09/20 01:06:45;;;;;;;;;10.00;10.00;;;;;16.55;46.26;101835.75;2061135;28;47741;-63
2022/09/20 01:07:49;;;;;;;;;5.20;5.20;;;;;16.54;46.62;101832.19;2053333;28;47841;-62
2022/09/20 01:08:52;;;;;;;;;7.20;6.20;;;;;16.54;46.23;101834.88;2045104;28;47300;-63
2022/09/20 01:09:52;;;;;;;;;3.00;2.60;;;;;16.54;46.07;101836.66;2046804;28;46677;-62
2022/09/20 01:10:53;;;;;;;;;4.00;3.00;;;;;16.52;46.16;101834.03;2062138;28;47121;-62
2022/09/20 01:11:56;;;;;;;;;3.00;3.00;;;;;16.52;46.40;101836.72;2062006;28;46957;-63
2022/09/20 01:12:57;;;;;;;;;3.40;3.40;;;;;16.50;46.61;101827.81;2062154;28;47749;-64
2022/09/20 01:13:57;;;;;;;;;4.75;4.75;;;;;16.50;46.49;101833.16;2062448;28;47309;-63
2022/09/20 01:15:01;;;;;;;;;3.75;3.75;;;;;16.51;46.44;101831.38;2061851;28;47725;-64
2022/09/20 01:16:04;;;;;;;;;4.20;4.20;;;;;16.50;46.42;101838.53;2062082;28;47550;-63
2022/09/20 01:17:06;;;;;;;;;2.00;2.00;;;;;16.49;46.45;101836.78;2060098;28;47634;-63
2022/09/20 01:18:09;;;;;;;;;3.80;3.00;;;;;16.50;46.44;101833.16;2054509;28;46502;-62
2022/09/20 01:19:20;;;;;;;;;4.20;3.00;;;;;16.49;46.24;101836.78;2054128;28;47526;-62
2022/09/20 01:20:25;;;;;;;;;4.00;4.00;;;;;16.47;46.63;101834.16;2055425;28;48014;-64
2022/09/20 01:21:27;;;;;;;;;4.40;4.40;;;;;16.46;46.54;101826.16;2055286;28;47783;-64
2022/09/20 01:23:00;;;;;;;;;2.75;2.75;;;;;16.43;46.28;101824.44;2059327;28;47102;-63
2022/09/20 01:24:18;;;;;;;;;6.60;4.60;;;;;16.44;46.55;101825.31;2062664;28;48175;-64
2022/09/20 01:25:42;;;;;;;;;5.80;5.80;;;;;16.43;46.41;101821.78;2063046;28;47813;-63
2022/09/20 01:27:12;;;;;;;;;5.00;3.75;;;;;16.43;46.28;101821.78;2101890;27;48058;-63
2022/09/20 01:28:14;;;;;;;;;5.60;5.20;;;;;16.43;46.42;101812.84;2108518;27;47932;-64
2022/09/20 01:29:20;;;;;;;;;4.60;4.60;;;;;16.44;46.72;101815.47;2097114;28;47693;-62
2022/09/20 01:30:24;;;;;;;;;3.60;3.20;;;;;16.45;46.17;101819.91;2097672;27;47677;-62
2022/09/20 01:31:30;;;;;;;;;4.00;3.60;;;;;16.44;46.71;101814.59;2107978;27;47671;-63
2022/09/20 01:32:49;;;;;;;;;2.80;2.80;;;;;16.44;46.29;101812.81;2097168;28;47338;-62
2022/09/20 01:34:07;;;;;;;;;3.60;3.60;;;;;16.45;46.88;101819.91;2097320;28;47786;-63
2022/09/20 01:35:10;;;;;;;;;5.60;5.60;;;;;16.45;46.69;101822.59;2104007;27;46059;-63
2022/09/20 01:36:17;;;;;;;;;4.80;4.40;;;;;16.46;46.69;101826.16;2105369;28;47844;-63
2022/09/20 01:37:27;;;;;;;;;4.20;4.20;;;;;16.47;46.72;101815.38;2105230;28;48296;-63
2022/09/20 01:38:42;;;;;;;;;4.00;4.00;;;;;16.46;46.42;101820.78;2102105;28;47208;-63
2022/09/20 01:40:01;;;;;;;;;2.75;2.75;;;;;16.45;46.59;101813.69;2104098;28;47409;-63
2022/09/20 01:41:22;;;;;;;;;4.20;4.20;;;;;16.44;46.36;101814.59;2096640;28;47418;-61
2022/09/20 01:42:31;;;;;;;;;4.00;4.00;;;;;16.43;46.57;101821.78;2091113;28;48321;-62
2022/09/20 01:43:52;;;;;;;;;2.60;2.60;;;;;16.42;46.62;101819.13;2093284;28;47454;-63
2022/09/20 01:45:19;;;;;;;;;4.00;3.20;;;;;16.42;46.47;101819.13;2099660;28;47998;-63
2022/09/20 01:46:34;;;;;;;;;3.40;3.40;;;;;16.40;46.77;101812.94;2105555;27;47136;-63
2022/09/20 01:47:40;;;;;;;;;4.00;4.00;;;;;16.39;46.53;101814.75;2106318;27;48021;-63
2022/09/20 01:48:41;;;;;;;;;4.60;4.60;;;;;16.37;46.70;101815.69;2113949;27;47708;-63
2022/09/20 01:50:09;;;;;;;;;4.40;4.20;;;;;16.36;46.43;101822.84;2108142;27;48118;-63
2022/09/20 01:51:31;;;;;;;;;4.00;4.00;;;;;16.36;46.28;101821.97;2098548;28;47733;-64
2022/09/20 01:52:46;;;;;;;;;4.40;4.40;;;;;16.32;46.23;101815.84;2105636;28;48051;-64
2022/09/20 01:54:04;;;;;;;;;4.20;4.20;;;;;16.32;46.67;101820.31;2096447;28;47736;-63
2022/09/20 01:55:23;;;;;;;;;4.40;4.00;;;;;16.30;46.91;101815.00;2099251;28;47800;-63
2022/09/20 01:56:35;;;;;;;;;4.60;3.20;;;;;16.29;46.68;101809.69;2101955;28;47953;-63
2022/09/20 01:58:13;;;;;;;;;4.20;4.20;;;;;16.29;46.96;101807.00;2105756;28;47314;-63
2022/09/20 01:59:25;;;;;;;;;4.75;3.00;;;;;16.29;46.71;101807.00;2105716;28;48618;-62
2022/09/20 02:00:33;;;;;;;;;3.75;3.50;;;;;16.28;47.09;101807.94;2096567;28;47435;-62
2022/09/20 02:01:46;;;;;;;;;5.00;5.00;;;;;16.28;46.80;101803.44;2097595;28;47506;-63
2022/09/20 02:03:19;;;;;;;;;5.00;4.00;;;;;16.26;47.13;101801.72;2105578;28;48124;-63
2022/09/20 02:04:40;;;;;;;;;3.75;3.75;;;;;16.25;47.22;101800.84;2063112;28;47885;-63
2022/09/20 02:05:59;;;;;;;;;4.50;3.00;;;;;16.25;46.97;101790.13;2057639;28;45169;-62
2022/09/20 02:07:02;;;;;;;;;4.60;4.60;;;;;16.21;46.91;101793.81;2063022;28;47874;-64
2022/09/20 02:08:22;;;;;;;;;4.00;3.60;;;;;16.19;46.84;101790.31;2062963;28;46758;-63
2022/09/20 02:09:46;;;;;;;;;5.00;4.40;;;;;16.19;47.51;101793.88;2063053;28;47706;-63
2022/09/20 02:10:57;;;;;;;;;5.20;5.20;;;;;16.22;47.13;101800.06;2063204;28;47471;-63
2022/09/20 02:12:11;;;;;;;;;4.40;3.80;;;;;16.20;46.90;101794.75;2062975;28;48215;-64
2022/09/20 02:13:28;;;;;;;;;3.80;3.20;;;;;16.22;47.13;101792.00;2063012;28;47616;-62
2022/09/20 02:15:07;;;;;;;;;5.00;5.00;;;;;16.22;47.52;101802.72;2062896;28;47857;-62
2022/09/20 02:16:40;;;;;;;;;4.60;3.40;;;;;16.22;47.20;101808.97;2063170;28;47567;-62
2022/09/20 02:18:01;;;;;;;;;5.40;4.60;;;;;16.20;47.01;101810.81;2058998;28;47368;-62
2022/09/20 02:19:38;;;;;;;;;6.60;5.80;;;;;16.18;46.71;101807.31;2052639;28;47544;-63
2022/09/20 02:20:53;;;;;;;;;5.00;4.00;;;;;16.16;47.28;101819.88;2055147;28;47986;-62
2022/09/20 02:21:59;;;;;;;;;6.20;6.20;;;;;16.15;47.34;101807.41;2059608;28;47356;-63
2022/09/20 02:23:06;;;;;;;;;5.00;4.80;;;;;16.13;46.95;101802.09;2062685;28;47684;-61
2022/09/20 02:24:21;;;;;;;;;5.60;5.20;;;;;16.13;47.11;101807.44;2062816;28;47776;-63
2022/09/20 02:25:46;;;;;;;;;5.00;5.00;;;;;16.12;47.26;101802.09;2062672;28;47627;-62
2022/09/20 02:27:06;;;;;;;;;4.60;4.60;;;;;16.14;47.13;101808.31;2064333;28;47804;-62
2022/09/20 02:28:14;;;;;;;;;5.80;4.40;;;;;16.14;47.00;101803.84;2064858;28;48015;-62
2022/09/20 02:29:45;;;;;;;;;3.40;3.00;;;;;16.16;47.22;101806.47;2062718;28;48148;-63
2022/09/20 02:31:21;;;;;;;;;5.00;5.00;;;;;16.15;47.26;101807.41;2062917;28;47497;-64
2022/09/20 02:32:43;;;;;;;;;3.00;3.00;;;;;16.13;47.03;101804.75;2062909;28;47997;-64
2022/09/20 02:34:12;;;;;;;;;4.20;4.20;;;;;16.13;47.56;101809.22;2062846;28;48230;-64
2022/09/20 02:35:18;;;;;;;;;4.20;4.20;;;;;16.11;47.55;101805.69;2062895;28;48013;-63
2022/09/20 02:36:35;;;;;;;;;3.20;3.00;;;;;16.10;47.31;101812.84;2059736;28;48006;-63
2022/09/20 02:37:51;;;;;;;;;3.20;3.20;;;;;16.08;47.59;101814.69;2046143;28;47519;-64
2022/09/20 02:39:14;;;;;;;;;3.80;3.80;;;;;16.07;47.64;101815.63;2056419;28;47544;-63
2022/09/20 02:40:46;;;;;;;;;2.80;2.80;;;;;16.05;47.90;101814.78;2064595;28;47534;-62
2022/09/20 02:42:01;;;;;;;;;3.00;3.00;;;;;16.05;47.79;101821.94;2100712;28;47442;-63
2022/09/20 02:43:30;;;;;;;;;3.00;2.80;;;;;16.04;47.98;101818.38;2093394;28;47644;-63
2022/09/20 02:44:59;;;;;;;;;3.00;3.00;;;;;16.00;47.70;101811.34;2099782;28;47426;-63
2022/09/20 02:46:30;;;;;;;;;3.60;3.60;;;;;16.03;47.84;101818.44;2104924;28;47744;-63
2022/09/20 02:47:35;;;;;;;;;3.20;2.80;;;;;16.02;47.53;101819.34;2104836;28;47530;-63
2022/09/20 02:49:10;;;;;;;;;7.00;3.00;;;;;16.00;47.83;101819.38;2105085;28;48041;-63
2022/09/20 02:50:37;;;;;;;;;2.40;2.40;;;;;16.02;48.00;101820.25;2095107;28;46096;-63
2022/09/20 02:51:43;;;;;;;;;1.80;1.80;;;;;16.03;47.70;101823.78;2095822;28;47832;-62
2022/09/20 02:53:14;;;;;;;;;3.60;2.60;;;;;16.02;47.97;101819.34;2095145;28;47435;-63
2022/09/20 02:54:36;;;;;;;;;2.00;2.00;;;;;16.01;48.01;101820.28;2095655;28;47990;-63
2022/09/20 02:55:54;;;;;;;;;3.00;3.00;;;;;16.01;48.13;101821.16;2101296;27;48342;-63
2022/09/20 02:57:16;;;;;;;;;3.80;3.00;;;;;16.01;47.93;101815.81;2112530;27;48019;-62
2022/09/20 02:58:31;;;;;;;;;2.60;2.00;;;;;16.01;47.92;101815.81;2095662;28;47480;-63
2022/09/20 02:59:48;;;;;;;;;4.00;4.00;;;;;15.99;47.98;101814.94;2103169;28;47879;-63
2022/09/20 03:01:03;;;;;;;;;3.20;2.00;;;;;15.98;47.74;101807.81;2100962;27;47599;-62
2022/09/20 03:02:19;;;;;;;;;4.40;3.40;;;;;15.98;48.26;101815.84;2097365;28;47480;-63
2022/09/20 03:03:47;;;;;;;;;4.00;4.00;;;;;15.96;47.99;101812.34;2103744;28;47355;-64
2022/09/20 03:04:55;;;;;;;;;2.80;2.80;;;;;15.97;48.27;101814.09;2095391;28;47519;-62
2022/09/20 03:06:06;;;;;;;;;1.80;1.80;;;;;15.98;47.76;101815.84;2102535;28;47222;-62
2022/09/20 03:07:16;;;;;;;;;3.20;3.20;;;;;15.98;47.98;101815.84;2103705;28;47172;-62
2022/09/20 03:08:31;;;;;;;;;2.20;2.20;;;;;15.98;48.37;101810.50;2103871;28;47994;-63
2022/09/20 03:10:05;;;;;;;;;3.80;3.60;;;;;15.97;47.93;101813.22;2102575;28;47392;-62
2022/09/20 03:11:28;;;;;;;;;4.00;4.00;;;;;15.97;48.30;101816.78;2103862;27;47680;-64
2022/09/20 03:13:10;;;;;;;;;5.80;3.80;;;;;15.97;47.82;101808.75;2104433;27;48639;-62
2022/09/20 03:14:21;;;;;;;;;4.00;3.00;;;;;15.97;48.12;101813.22;2099528;28;47320;-63
2022/09/20 03:15:37;;;;;;;;;2.40;2.40;;;;;15.96;48.53;101822.19;2103461;27;47580;-63
2022/09/20 03:17:01;;;;;;;;;2.80;2.80;;;;;15.95;48.23;101820.44;2095355;28;47636;-64
2022/09/20 03:18:16;;;;;;;;;4.40;3.20;;;;;15.93;48.15;101823.16;2090348;28;47270;-63
2022/09/20 03:19:35;;;;;;;;;2.80;2.80;;;;;15.92;48.57;101816.03;2101760;28;47997;-63
2022/09/20 03:21:03;;;;;;;;;2.60;2.60;;;;;15.89;48.27;101817.00;2103649;28;48316;-63
2022/09/20 03:22:21;;;;;;;;;2.40;2.40;;;;;15.88;48.19;101812.56;2099369;27;47781;-63
2022/09/20 03:23:31;;;;;;;;;4.00;2.00;;;;;15.88;48.62;101814.38;2104540;27;47224;-64
2022/09/20 03:24:38;;;;;;;;;5.60;4.40;;;;;15.87;48.52;101816.13;2104963;28;47592;-63
2022/09/20 03:25:55;;;;;;;;;5.20;3.80;;;;;15.86;48.20;101808.16;2104471;28;47977;-63
2022/09/20 03:27:06;;;;;;;;;5.60;3.40;;;;;15.87;48.15;101809.91;2104753;27;46500;-61
2022/09/20 03:28:37;;;;;;;;;4.40;3.60;;;;;15.87;48.68;101813.47;2104290;28;47559;-62
2022/09/20 03:29:43;;;;;;;;;3.60;3.60;;;;;15.89;48.36;101813.44;2098741;27;47419;-63
2022/09/20 03:31:02;;;;;;;;;2.40;2.40;;;;;15.89;48.30;101813.44;2097383;28;48120;-62
2022/09/20 03:32:21;;;;;;;;;3.00;3.00;;;;;15.92;48.21;101815.16;2100501;28;47252;-64
2022/09/20 03:33:52;;;;;;;;;3.20;2.00;;;;;15.90;48.65;101812.53;2104549;28;47478;-62
2022/09/20 03:35:28;;;;;;;;;4.00;3.00;;;;;15.90;48.20;101809.84;2104795;28;47827;-63
2022/09/20 03:37:06;;;;;;;;;3.80;3.80;;;;;15.89;48.31;101808.09;2105608;27;48259;-63
2022/09/20 03:38:34;;;;;;;;;5.00;4.00;;;;;15.87;48.44;101810.78;2111507;27;48013;-63
2022/09/20 03:39:44;;;;;;;;;4.40;3.20;;;;;15.86;48.28;101806.34;2102622;28;47803;-62
2022/09/20 03:41:11;;;;;;;;;3.00;2.80;;;;;15.84;48.63;101810.88;2103211;28;47637;-63
2022/09/20 03:42:16;;;;;;;;;2.40;2.40;;;;;15.84;48.25;101802.84;2095534;28;47373;-63
2022/09/20 03:43:35;;;;;;;;;6.20;5.60;;;;;15.84;48.69;101812.66;2087749;28;47860;-64
2022/09/20 03:45:02;;;;;;;;;8.40;6.00;;;;;15.82;48.86;101818.06;2099187;28;45963;-63
2022/09/20 03:46:08;;;;;;;;;14.60;14.60;;;;;15.81;48.68;101820.78;2086621;28;47513;-62
2022/09/20 03:47:24;;;;;;;;;10.00;10.00;;;;;15.80;48.66;101813.69;2080218;28;47673;-63
2022/09/20 03:48:47;;;;;;;;;5.80;5.60;;;;;15.79;48.45;101817.28;2098086;28;47641;-63
2022/09/20 03:50:39;;;;;;;;;6.00;6.00;;;;;15.79;48.44;101815.47;2101103;28;47808;-63
2022/09/20 03:51:55;;;;;;;;;2.80;2.80;;;;;15.78;48.60;101811.03;2087110;28;47830;-63
2022/09/20 03:53:39;;;;;;;;;2.80;2.80;;;;;15.78;48.77;101812.84;2086952;28;47440;-62
2022/09/20 03:54:48;;;;;;;;;4.00;4.00;;;;;15.78;48.42;101816.41;2095631;28;47819;-63
2022/09/20 03:56:03;;;;;;;;;2.80;2.60;;;;;15.79;48.87;101811.91;2094200;28;48901;-64
2022/09/20 03:57:04;;;;;;;;;2.80;2.80;;;;;15.77;48.72;101811.97;2086979;28;47586;-62
2022/09/20 03:58:20;;;;;;;;;3.25;3.25;;;;;15.75;48.64;101810.22;2087244;28;47272;-63
2022/09/20 03:59:47;;;;;;;;;2.75;2.75;;;;;15.73;48.94;101815.63;2086993;28;47582;-64
2022/09/20 04:00:56;;;;;;;;;4.80;3.80;;;;;15.73;48.70;101812.94;2087624;28;47777;-63
2022/09/20 04:02:19;;;;;;;;;3.80;3.80;;;;;15.74;49.00;101817.38;2086887;28;47784;-64
2022/09/20 04:03:32;;;;;;;;;3.50;3.00;;;;;15.76;49.03;101817.38;2087127;28;48302;-64
2022/09/20 04:04:45;;;;;;;;;5.00;4.00;;;;;15.75;48.74;101810.22;2078908;28;47890;-63
2022/09/20 04:06:08;;;;;;;;;4.00;3.20;;;;;15.75;48.61;101816.50;2084833;28;47476;-63
2022/09/20 04:07:27;;;;;;;;;5.60;4.00;;;;;15.76;49.19;101812.00;2086880;28;47558;-63
2022/09/20 04:08:49;;;;;;;;;6.00;5.20;;;;;15.72;48.67;101811.19;2087078;28;47743;-64
2022/09/20 04:10:12;;;;;;;;;4.40;3.00;;;;;15.73;49.11;101812.06;2086712;28;48027;-64
2022/09/20 04:11:25;;;;;;;;;4.00;4.00;;;;;15.71;48.91;101808.56;2087027;28;47389;-61
2022/09/20 04:12:51;;;;;;;;;5.60;4.00;;;;;15.70;48.78;101812.16;2087094;28;48142;-62
2022/09/20 04:14:13;;;;;;;;;4.20;4.00;;;;;15.70;49.17;101810.34;2078336;28;47639;-63
2022/09/20 04:15:29;;;;;;;;;3.20;3.20;;;;;15.71;49.20;101803.19;2081427;28;48264;-62
2022/09/20 04:16:52;;;;;;;;;1.40;1.40;;;;;15.72;48.64;101812.97;2086785;28;48078;-63
2022/09/20 04:18:03;;;;;;;;;4.00;4.00;;;;;15.73;48.66;101807.59;2078813;28;48390;-62
2022/09/20 04:19:31;;;;;;;;;3.00;3.00;;;;;15.72;49.06;101803.16;2086807;28;46835;-63
2022/09/20 04:20:45;;;;;;;;;3.20;3.20;;;;;15.74;49.11;101806.66;2087420;28;47887;-64
2022/09/20 04:21:55;;;;;;;;;3.80;2.80;;;;;15.72;48.89;101805.84;2086528;28;47777;-64
2022/09/20 04:23:01;;;;;;;;;4.80;4.60;;;;;15.71;48.82;101809.44;2079584;28;46439;-63
2022/09/20 04:24:01;;;;;;;;;2.80;2.80;;;;;15.71;49.28;101809.44;2087101;28;47340;-62
2022/09/20 04:25:14;;;;;;;;;5.00;3.75;;;;;15.72;48.95;101807.63;2078525;28;47674;-62
2022/09/20 04:26:23;;;;;;;;;3.60;3.60;;;;;15.70;48.95;101810.34;2079829;28;47833;-62
2022/09/20 04:27:29;;;;;;;;;5.00;4.00;;;;;15.69;49.37;101811.28;2086516;28;48157;-62
2022/09/20 04:28:43;;;;;;;;;3.40;3.40;;;;;15.68;49.07;101817.53;2081013;28;47409;-63
2022/09/20 04:30:00;;;;;;;;;3.00;3.00;;;;;15.67;49.21;101810.44;2097104;28;47358;-63
2022/09/20 04:31:27;;;;;;;;;4.40;3.40;;;;;15.66;48.97;101813.16;2095985;28;47524;-63
2022/09/20 04:32:59;;;;;;;;;2.40;2.40;;;;;15.67;49.41;101821.16;2062065;28;47973;-63
2022/09/20 04:34:03;;;;;;;;;4.60;4.00;;;;;15.67;49.32;101821.16;2068061;28;47795;-62
2022/09/20 04:37:03;;;;;;;;;2.20;2.20;;;;;15.65;49.59;101819.44;2070153;28;47576;-62
2022/09/20 04:38:11;;;;;;;;;3.00;3.00;;;;;15.66;49.27;101818.50;2074529;28;47483;-64
2022/09/20 04:39:31;;;;;;;;;4.40;4.40;;;;;15.64;48.97;101820.34;2071703;28;47166;-63
2022/09/20 04:40:56;;;;;;;;;3.40;2.40;;;;;15.62;49.14;101811.44;2074073;28;47951;-64
2022/09/20 04:42:38;;;;;;;;;2.40;2.40;;;;;15.63;49.43;101813.25;2069800;28;47523;-64
2022/09/20 04:44:07;;;;;;;;;4.40;3.80;;;;;15.62;49.52;101819.47;2037816;28;47321;-63
2022/09/20 04:45:20;;;;;;;;;4.00;4.00;;;;;15.60;49.14;101816.84;2041729;28;47455;-63
2022/09/20 04:46:42;;;;;;;;;4.20;4.20;;;;;15.59;49.31;101815.06;2041062;28;47016;-63
2022/09/20 04:48:21;;;;;;;;;4.80;4.60;;;;;15.59;49.41;101820.41;2039152;28;47568;-64
2022/09/20 04:49:48;;;;;;;;;5.60;4.40;;;;;15.56;49.35;101818.69;2022162;29;47329;-63
2022/09/20 04:51:26;;;;;;;;;3.20;3.20;;;;;15.57;49.62;101823.13;2022486;29;47946;-63
2022/09/20 04:52:58;;;;;;;;;3.00;2.60;;;;;15.56;49.48;101824.03;2021548;29;47488;-62
2022/09/20 04:54:18;;;;;;;;;3.40;3.40;;;;;15.55;49.15;101818.75;2022219;29;47659;-64
2022/09/20 04:55:54;;;;;;;;;4.80;4.80;;;;;15.55;49.28;101830.31;2024400;29;47701;-64
2022/09/20 04:57:33;;;;;;;;;2.60;2.60;;;;;15.53;49.50;101837.50;2017804;29;47453;-64
2022/09/20 04:58:42;;;;;;;;;3.00;3.00;;;;;15.52;49.22;101835.75;2017866;29;47679;-64
2022/09/20 05:00:09;;;;;;;;;3.40;3.40;;;;;15.50;49.72;101834.91;2020476;29;47553;-63
2022/09/20 05:01:16;;;;;;;;;3.00;3.00;;;;;15.49;49.78;101833.13;2012851;29;48207;-64
2022/09/20 05:02:58;;;;;;;;;3.40;3.40;;;;;15.49;49.35;101830.44;2012397;29;47756;-63
2022/09/20 05:04:37;;;;;;;;;5.80;3.80;;;;;15.49;49.51;101837.59;1994541;29;47851;-62
2022/09/20 05:05:54;;;;;;;;;7.60;7.60;;;;;15.49;49.51;101834.91;1991023;29;47473;-62
2022/09/20 05:07:33;;;;;;;;;3.60;3.60;;;;;15.47;49.28;101837.63;1994240;29;47389;-63
2022/09/20 05:08:49;;;;;;;;;4.40;3.00;;;;;15.47;49.70;101836.75;1972116;29;47266;-62
2022/09/20 05:10:13;;;;;;;;;4.20;4.20;;;;;15.49;49.80;101842.94;1977880;29;47491;-63
2022/09/20 05:11:29;;;;;;;;;3.00;3.00;;;;;15.49;49.34;101842.94;1980432;29;48338;-65
2022/09/20 05:12:52;;;;;;;;;4.80;4.00;;;;;15.47;49.42;101842.13;1972102;29;47736;-62
2022/09/20 05:14:30;;;;;;;;;2.60;2.60;;;;;15.46;49.97;101840.34;1983760;29;47593;-64
2022/09/20 05:15:59;;;;;;;;;3.00;3.00;;;;;15.45;49.90;101842.16;1998356;29;47848;-63
2022/09/20 05:17:30;;;;;;;;;2.80;2.40;;;;;15.46;49.42;101835.00;1996560;29;47910;-63
2022/09/20 05:18:49;;;;;;;;;5.00;5.00;;;;;15.48;49.42;101836.72;1994727;29;48150;-62
2022/09/20 05:20:18;;;;;;;;;3.40;2.80;;;;;15.49;49.81;101835.81;1992483;29;47499;-63
2022/09/20 05:21:39;;;;;;;;;4.20;3.20;;;;;15.50;49.98;101832.25;1992731;29;47366;-64
2022/09/20 05:23:01;;;;;;;;;3.00;3.00;;;;;15.48;49.96;101828.69;1992463;29;47276;-62
2022/09/20 05:24:37;;;;;;;;;3.20;3.20;;;;;15.47;50.06;101832.28;1996081;29;47933;-59
2022/09/20 05:25:51;;;;;;;;;7.60;7.60;;;;;15.43;50.00;101835.97;1985091;29;47786;-60
2022/09/20 05:27:00;;;;;;;;;3.60;3.60;;;;;15.41;50.06;101832.44;1994759;29;47253;-60
2022/09/20 05:28:32;;;;;;;;;3.80;3.80;;;;;15.39;49.95;101831.63;2015009;29;47941;-59
2022/09/20 05:29:48;;;;;;;;;2.80;2.80;;;;;15.33;49.96;101829.06;2021059;29;45648;-59
2022/09/20 05:30:54;;;;;;;;;3.20;3.20;;;;;15.29;49.93;101828.28;2014715;29;48066;-60
2022/09/20 05:32:02;;;;;;;;;4.60;3.40;;;;;15.27;50.24;101835.47;2022942;29;47764;-59
2022/09/20 05:33:33;;;;;;;;;3.00;3.00;;;;;15.26;50.70;101833.69;2021969;29;48165;-60
2022/09/20 05:35:15;;;;;;;;;4.20;3.40;;;;;15.26;50.62;101831.03;2013721;29;47746;-59
2022/09/20 05:36:51;;;;;;;;;4.40;3.80;;;;;15.26;50.50;101839.03;2012372;29;47475;-59
2022/09/20 05:38:17;;;;;;;;;3.80;3.80;;;;;15.27;50.44;101832.78;2015658;29;47553;-59
2022/09/20 05:39:34;;;;;;;;;3.60;3.60;;;;;15.28;50.68;101833.66;2018128;29;47168;-60
2022/09/20 05:41:07;;;;;;;;;4.20;4.20;;;;;15.29;50.62;101832.75;2023493;29;48382;-59
2022/09/20 05:42:17;;;;;;;;;3.20;3.20;;;;;15.29;50.76;101836.28;2046643;28;48081;-60
2022/09/20 05:43:29;;;;;;;;;4.60;3.60;;;;;15.31;50.95;101828.22;2040433;28;47827;-59
2022/09/20 05:45:07;;;;;;;;;3.00;3.00;;;;;15.32;50.87;101828.19;2044220;28;47443;-59
2022/09/20 05:46:16;;;;;;;;;7.00;6.20;;;;;15.35;50.97;101837.06;2053310;28;47901;-59
2022/09/20 05:47:31;;;;;;;;;5.40;4.40;;;;;15.38;50.70;101835.22;2063151;28;47530;-60
2022/09/20 05:48:52;;;;;;;;;6.80;5.60;;;;;15.41;50.67;101840.47;2063384;28;47747;-60
2022/09/20 05:50:08;;;;;;;;;4.60;4.60;;;;;15.46;50.46;101840.34;2062838;28;47470;-60
2022/09/20 05:51:26;;;;;;;;;7.00;5.00;;;;;15.49;50.36;101835.81;2062987;28;47631;-60
2022/09/20 05:53:03;;;;;;;;;4.60;4.60;;;;;15.52;50.60;101834.88;2060217;28;47088;-59